Time;durP1;ratioP1;P1;durP2;ratioP2;P2;SDS_P1;SDS_P2;PMS_P1;PMS_P2;Temp;Humidity;BMP_temperature;BMP_pressure;BME280_temperature;BME280_humidity;BME280_pressure;Samples;Min_cycle;Max_cycle;Signal;HPM_P1;HPM_P2
2022/04/01 00:00:01;;;;;;;1.05;0.43;;;1.70;92.90;;;;;;4972996;28;20120;-49
2022/04/01 00:02:26;;;;;;;1.40;0.57;;;1.70;92.80;;;;;;4972465;28;20073;-54
2022/04/01 00:04:52;;;;;;;0.47;0.47;;;1.70;92.70;;;;;;4972572;28;20101;-53
2022/04/01 00:07:18;;;;;;;0.90;0.45;;;1.70;93.40;;;;;;4972394;28;20023;-52
2022/04/01 00:09:43;;;;;;;2.13;0.40;;;1.70;93.30;;;;;;4971833;28;20169;-52
2022/04/01 00:12:10;;;;;;;1.33;0.82;;;1.70;93.20;;;;;;4972261;28;20090;-49
2022/04/01 00:14:36;;;;;;;1.20;0.50;;;1.70;93.10;;;;;;4971500;28;20049;-51
2022/04/01 00:17:02;;;;;;;1.75;0.63;;;1.70;93.70;;;;;;4972348;28;20026;-51
2022/04/01 00:19:28;;;;;;;1.02;0.73;;;1.70;93.70;;;;;;4972322;28;20038;-50
2022/04/01 00:21:54;;;;;;;1.08;0.57;;;1.70;93.70;;;;;;4972046;28;20031;-49
2022/04/01 00:24:20;;;;;;;0.55;0.50;;;1.70;93.70;;;;;;4971849;28;20038;-50
2022/04/01 00:26:46;;;;;;;0.50;0.40;;;1.70;94.20;;;;;;4972490;28;20401;-48
2022/04/01 00:29:15;;;;;;;3.20;0.70;;;1.70;93.90;;;;;;4972348;28;20023;-50
2022/04/01 00:31:45;;;;;;;1.13;0.63;;;1.70;94.10;;;;;;4972075;28;20034;-51
2022/04/01 00:34:17;;;;;;;1.50;0.50;;;1.80;93.30;;;;;;4971250;28;20066;-49
2022/04/01 00:36:52;;;;;;;1.15;0.40;;;1.80;93.80;;;;;;4971393;28;20493;-49
2022/04/01 00:39:19;;;;;;;0.57;0.30;;;1.80;94.30;;;;;;4968991;28;20046;-49
2022/04/01 00:41:46;;;;;;;2.75;0.88;;;1.80;93.50;;;;;;4972180;28;20030;-50
2022/04/01 00:44:13;;;;;;;1.38;0.47;;;1.70;93.70;;;;;;4969164;28;20045;-52
2022/04/01 00:46:44;;;;;;;3.22;0.63;;;1.70;93.50;;;;;;4971368;28;20038;-48
2022/04/01 00:49:10;;;;;;;2.72;0.93;;;1.70;94.10;;;;;;4971161;28;20034;-50
2022/04/01 00:51:37;;;;;;;0.98;0.50;;;1.70;93.60;;;;;;4971806;28;20027;-50
2022/04/01 00:54:05;;;;;;;0.63;0.43;;;1.80;93.10;;;;;;4971330;28;20441;-50
2022/04/01 00:56:32;;;;;;;0.63;0.45;;;1.80;93.70;;;;;;4972184;28;20102;-49
2022/04/01 00:58:58;;;;;;;3.95;0.77;;;1.80;94.60;;;;;;4969119;28;20026;-50
2022/04/01 01:01:26;;;;;;;1.63;0.70;;;1.80;94.40;;;;;;4969476;28;20109;-50
2022/04/01 01:03:51;;;;;;;1.95;0.80;;;1.70;95.30;;;;;;4969142;28;20477;-49
2022/04/01 01:06:19;;;;;;;1.58;0.60;;;1.70;94.90;;;;;;4971945;28;20829;-50
2022/04/01 01:08:45;;;;;;;0.65;0.57;;;1.70;96.40;;;;;;4971873;28;20026;-48
2022/04/01 01:11:11;;;;;;;1.98;0.50;;;1.70;95.80;;;;;;4971440;28;20019;-48
2022/04/01 01:13:37;;;;;;;2.97;0.65;;;1.70;96.30;;;;;;4970637;28;20022;-56
2022/04/01 01:16:03;;;;;;;2.90;0.52;;;1.70;96.30;;;;;;4971176;28;20509;-49
2022/04/01 01:18:29;;;;;;;1.00;0.75;;;1.70;96.70;;;;;;4970979;28;20031;-50
2022/04/01 01:20:54;;;;;;;2.75;0.80;;;1.70;97.10;;;;;;4971121;28;20042;-48
2022/04/01 01:23:27;;;;;;;1.00;0.65;;;1.70;96.80;;;;;;4970035;28;20037;-52
2022/04/01 01:25:53;;;;;;;0.88;0.55;;;1.70;96.60;;;;;;4969807;28;20030;-49
2022/04/01 01:28:18;;;;;;;3.22;0.55;;;1.70;97.10;;;;;;4970643;28;20041;-48
2022/04/01 01:30:44;;;;;;;0.60;0.50;;;1.70;97.40;;;;;;4971437;28;20029;-49
2022/04/01 01:33:11;;;;;;;1.27;0.68;;;1.70;97.20;;;;;;4970320;28;20405;-51
2022/04/01 01:35:37;;;;;;;1.27;0.60;;;1.70;97.90;;;;;;4970932;28;20022;-52
2022/04/01 01:38:02;;;;;;;0.52;0.50;;;1.70;98.20;;;;;;4970880;28;20041;-51
2022/04/01 01:40:28;;;;;;;2.47;0.47;;;1.60;99.50;;;;;;4970513;28;20526;-51
2022/04/01 01:42:54;;;;;;;0.50;0.50;;;1.60;98.70;;;;;;4970934;28;20023;-47
2022/04/01 01:45:19;;;;;;;1.63;0.70;;;1.60;99.00;;;;;;4970624;28;20035;-50
2022/04/01 01:47:45;;;;;;;0.50;0.50;;;1.60;99.20;;;;;;4971340;28;20486;-48
2022/04/01 01:55:39;;;;;;;2.13;0.82;;;1.60;99.20;;;;;;4967772;28;20582;-49
2022/04/01 01:58:05;;;;;;;1.67;0.60;;;1.60;99.90;;;;;;4962913;28;20110;-52
2022/04/01 02:00:31;;;;;;;3.58;0.65;;;1.60;99.90;;;;;;4967930;28;20050;-51
2022/04/01 02:02:57;;;;;;;3.33;0.90;;;1.60;99.90;;;;;;4970316;28;20027;-51
2022/04/01 02:05:22;;;;;;;1.65;0.95;;;1.60;99.90;;;;;;4970020;28;20027;-48
2022/04/01 02:07:48;;;;;;;0.57;0.57;;;1.60;99.90;;;;;;4970374;28;20031;-50
2022/04/01 02:10:16;;;;;;;1.13;0.60;;;1.60;99.90;;;;;;4970068;28;20062;-47
2022/04/01 02:12:43;;;;;;;0.80;0.35;;;1.70;99.90;;;;;;4970482;28;20055;-48
2022/04/01 02:15:12;;;;;;;4.05;0.75;;;1.70;99.90;;;;;;4970584;28;20023;-48
2022/04/01 02:17:40;;;;;;;0.98;0.60;;;1.70;99.90;;;;;;4970628;28;20117;-50
2022/04/01 02:20:09;;;;;;;4.13;1.17;;;1.60;99.90;;;;;;4969532;28;20544;-50
2022/04/01 02:22:38;;;;;;;2.22;0.50;;;1.70;99.90;;;;;;4970403;28;20027;-50
2022/04/01 02:25:07;;;;;;;0.63;0.52;;;1.70;99.90;;;;;;4969212;28;20027;-51
2022/04/01 02:27:33;;;;;;;2.22;0.55;;;1.60;99.90;;;;;;4969338;28;20055;-51
2022/04/01 02:29:59;;;;;;;2.08;0.82;;;1.60;99.90;;;;;;4970195;28;20126;-48
2022/04/01 02:32:25;;;;;;;3.42;1.08;;;1.60;99.90;;;;;;4970035;28;20102;-48
2022/04/01 02:34:51;;;;;;;1.95;0.80;;;1.60;99.90;;;;;;4973452;28;20034;-47
2022/04/01 02:37:21;;;;;;;1.20;0.57;;;1.60;99.90;;;;;;4974035;28;20027;-48
2022/04/01 02:39:47;;;;;;;3.25;0.65;;;1.60;99.90;;;;;;4974259;28;20554;-50
2022/04/01 02:42:12;;;;;;;2.33;0.57;;;1.60;99.90;;;;;;4974169;28;20114;-50
2022/04/01 02:44:39;;;;;;;0.68;0.43;;;1.60;99.90;;;;;;4972587;28;20184;-51
2022/04/01 02:47:05;;;;;;;1.05;0.52;;;1.60;99.90;;;;;;4974262;28;20034;-49
2022/04/01 02:49:30;;;;;;;2.15;0.88;;;1.60;99.90;;;;;;4973495;28;20031;-48
2022/04/01 02:51:56;;;;;;;4.53;1.00;;;1.60;99.90;;;;;;4973544;28;20022;-49
2022/04/01 02:54:21;;;;;;;2.25;0.85;;;1.60;99.90;;;;;;4973973;28;20060;-50
2022/04/01 02:56:47;;;;;;;1.65;0.50;;;1.70;99.90;;;;;;4973807;28;20082;-46
2022/04/01 02:59:13;;;;;;;3.40;0.75;;;1.60;99.90;;;;;;4973827;28;20121;-48
2022/04/01 03:01:40;;;;;;;1.17;0.50;;;1.70;99.90;;;;;;4973986;28;20027;-51
2022/04/01 03:04:10;;;;;;;1.80;0.75;;;1.70;99.90;;;;;;4973523;28;20035;-49
2022/04/01 03:06:40;;;;;;;1.88;0.40;;;1.70;99.90;;;;;;4973815;28;20118;-50
2022/04/01 03:09:06;;;;;;;4.10;0.60;;;1.70;99.90;;;;;;4973545;28;20035;-49
2022/04/01 03:11:32;;;;;;;1.75;0.63;;;1.70;99.90;;;;;;4973754;28;20030;-48
2022/04/01 03:13:58;;;;;;;1.67;0.50;;;1.70;99.90;;;;;;4973387;28;20027;-49
2022/04/01 03:16:24;;;;;;;1.60;0.43;;;1.70;99.90;;;;;;4973472;28;20461;-50
2022/04/01 03:18:50;;;;;;;0.55;0.55;;;1.80;99.90;;;;;;4973323;28;20378;-46
2022/04/01 03:21:16;;;;;;;1.17;0.60;;;1.70;99.90;;;;;;4973473;28;20039;-48
2022/04/01 03:23:47;;;;;;;3.92;0.68;;;1.70;99.90;;;;;;4973141;28;20027;-48
2022/04/01 03:26:12;;;;;;;3.25;0.85;;;1.70;99.90;;;;;;4973396;28;20054;-49
2022/04/01 03:28:39;;;;;;;2.10;0.80;;;1.70;99.90;;;;;;4973284;28;20081;-47
2022/04/01 03:31:06;;;;;;;4.03;0.77;;;1.70;99.90;;;;;;4973220;28;20121;-47
2022/04/01 03:33:34;;;;;;;2.95;0.70;;;1.70;99.90;;;;;;4970794;28;20061;-49
2022/04/01 03:36:00;;;;;;;2.15;0.65;;;1.70;99.90;;;;;;4973178;28;20041;-48
2022/04/01 03:38:26;;;;;;;1.58;0.98;;;1.70;99.90;;;;;;4973252;28;20034;-47
2022/04/01 03:40:52;;;;;;;1.83;0.70;;;1.70;99.90;;;;;;4973377;28;20030;-50
2022/04/01 03:43:23;;;;;;;3.10;1.10;;;1.70;99.90;;;;;;4972826;28;20449;-50
2022/04/01 03:45:50;;;;;;;1.70;0.98;;;1.70;99.90;;;;;;4972182;28;20509;-51
2022/04/01 03:48:33;;;;;;;1.55;0.85;;;1.70;99.90;;;;;;4972860;28;20069;-53
2022/04/01 03:50:59;;;;;;;2.20;1.02;;;1.70;99.90;;;;;;4972939;28;20486;-48
2022/04/01 03:53:29;;;;;;;1.60;0.93;;;1.80;99.90;;;;;;4972585;28;20027;-50
2022/04/01 03:55:57;;;;;;;1.65;1.15;;;1.70;99.90;;;;;;4972701;28;20041;-52
2022/04/01 03:58:31;;;;;;;2.92;1.33;;;1.70;99.90;;;;;;4972439;28;20031;-47
2022/04/01 04:00:58;;;;;;;2.00;1.02;;;1.70;99.90;;;;;;4973038;28;20379;-49
2022/04/01 04:03:25;;;;;;;2.72;1.30;;;1.70;99.90;;;;;;4972371;28;20027;-53
2022/04/01 04:05:51;;;;;;;4.13;1.58;;;1.70;99.90;;;;;;4972572;28;20031;-48
2022/04/01 04:08:22;;;;;;;2.25;1.15;;;1.70;99.90;;;;;;4971160;28;20054;-50
2022/04/01 04:10:48;;;;;;;3.13;1.20;;;1.70;99.90;;;;;;4972359;28;20034;-47
2022/04/01 04:13:16;;;;;;;4.65;1.90;;;1.80;99.90;;;;;;4971882;28;20118;-47
2022/04/01 04:16:04;;;;;;;3.45;1.42;;;1.70;99.90;;;;;;4972220;28;20031;-50
2022/04/01 04:18:40;;;;;;;3.83;1.40;;;1.80;99.90;;;;;;4972265;28;20130;-48
2022/04/01 04:21:27;;;;;;;3.60;1.70;;;1.70;99.90;;;;;;4972213;28;20697;-50
2022/04/01 04:24:01;;;;;;;4.57;1.63;;;1.80;99.90;;;;;;4971364;28;20035;-46
2022/04/01 04:26:37;;;;;;;2.13;1.27;;;1.80;99.90;;;;;;4972341;28;20042;-50
2022/04/01 04:29:11;;;;;;;3.45;1.45;;;1.80;99.90;;;;;;4972132;28;20042;-48
2022/04/01 04:31:41;;;;;;;4.97;1.52;;;1.80;99.90;;;;;;4971855;28;20038;-49
2022/04/01 04:34:10;;;;;;;3.40;1.70;;;1.80;99.90;;;;;;4971065;28;20089;-47
2022/04/01 04:36:41;;;;;;;3.20;1.50;;;1.80;99.90;;;;;;4971592;28;20023;-49
2022/04/01 04:39:31;;;;;;;2.40;1.50;;;1.80;99.90;;;;;;4971402;28;20035;-51
2022/04/01 04:41:57;;;;;;;3.65;1.50;;;1.80;99.90;;;;;;4971782;28;20039;-48
2022/04/01 04:44:25;;;;;;;3.65;1.80;;;1.80;99.90;;;;;;4970402;28;20023;-51
2022/04/01 04:46:53;;;;;;;2.30;1.45;;;1.80;99.90;;;;;;4971716;28;20027;-49
2022/04/01 04:49:19;;;;;;;3.03;1.35;;;1.90;99.90;;;;;;4971387;28;20460;-49
2022/04/01 04:51:48;;;;;;;4.10;1.75;;;1.90;99.90;;;;;;4971443;28;20038;-47
2022/04/01 04:54:14;;;;;;;2.60;1.42;;;1.80;99.90;;;;;;4970800;28;20023;-50
2022/04/01 04:56:41;;;;;;;2.83;1.65;;;1.80;99.90;;;;;;4971927;28;20046;-48
2022/04/01 04:59:09;;;;;;;4.10;1.80;;;1.80;99.90;;;;;;4971145;28;20034;-48
2022/04/01 05:01:54;;;;;;;4.72;1.90;;;1.80;99.90;;;;;;4971758;28;20114;-48
2022/04/01 05:04:39;;;;;;;5.47;1.88;;;1.80;99.90;;;;;;4971502;28;20031;-47
2022/04/01 05:07:29;;;;;;;3.60;2.22;;;1.80;99.90;;;;;;4971387;28;20609;-48
2022/04/01 05:10:22;;;;;;;3.50;1.65;;;1.80;99.90;;;;;;4971012;28;20027;-48
2022/04/01 05:13:08;;;;;;;3.13;2.13;;;1.80;99.90;;;;;;4971324;28;20030;-49
2022/04/01 05:15:36;;;;;;;6.53;2.30;;;1.80;99.90;;;;;;4956742;28;20054;-49
2022/04/01 05:18:09;;;;;;;3.58;1.73;;;1.80;99.90;;;;;;4971473;28;20101;-49
2022/04/01 05:20:38;;;;;;;3.38;1.73;;;1.80;99.90;;;;;;4971367;28;20023;-50
2022/04/01 05:23:17;;;;;;;3.10;1.70;;;1.90;99.90;;;;;;4970684;28;20470;-52
2022/04/01 05:25:49;;;;;;;4.80;2.42;;;1.90;99.90;;;;;;4971056;28;20548;-48
2022/04/01 05:28:24;;;;;;;3.72;2.08;;;1.90;99.90;;;;;;4971010;28;20039;-47
2022/04/01 05:31:10;;;;;;;7.97;2.40;;;1.90;99.90;;;;;;4971225;28;20053;-49
2022/04/01 05:33:44;;;;;;;4.28;2.15;;;1.90;99.90;;;;;;4966159;28;20035;-50
2022/04/01 05:36:12;;;;;;;2.55;2.13;;;1.90;99.90;;;;;;4970653;28;20043;-49
2022/04/01 05:38:38;;;;;;;3.50;1.80;;;1.90;99.90;;;;;;4971034;28;20035;-48
2022/04/01 05:41:05;;;;;;;2.15;1.90;;;2.00;99.90;;;;;;4971094;28;20033;-47
2022/04/01 05:43:31;;;;;;;3.17;1.80;;;2.00;99.90;;;;;;4970581;28;20085;-48
2022/04/01 05:45:57;;;;;;;5.65;2.30;;;2.00;99.90;;;;;;4970830;28;20057;-48
2022/04/01 05:48:23;;;;;;;3.22;2.00;;;2.00;99.90;;;;;;4970661;28;20062;-47
2022/04/01 05:50:52;;;;;;;3.83;2.33;;;2.00;99.90;;;;;;4970882;28;20023;-46
2022/04/01 05:53:21;;;;;;;3.22;2.28;;;2.10;99.90;;;;;;4970661;28;20027;-49
2022/04/01 05:55:47;;;;;;;6.03;2.03;;;2.10;99.90;;;;;;4970805;28;20023;-49
2022/04/01 05:58:13;;;;;;;4.90;2.10;;;2.10;99.90;;;;;;4970850;28;20389;-53
2022/04/01 06:00:55;;;;;;;5.32;2.63;;;2.10;99.90;;;;;;4969518;28;20027;-48
2022/04/01 06:03:40;;;;;;;2.67;1.70;;;2.10;99.90;;;;;;4970133;28;20023;-51
2022/04/01 06:06:40;;;;;;;4.70;2.15;;;2.20;99.90;;;;;;4970929;28;20038;-52
2022/04/01 06:09:24;;;;;;;2.47;2.08;;;2.10;99.90;;;;;;4958885;28;20113;-50
2022/04/01 06:12:02;;;;;;;2.90;2.03;;;2.20;99.90;;;;;;4970326;28;20033;-49
2022/04/01 06:14:58;;;;;;;4.45;2.25;;;2.20;99.90;;;;;;4970569;28;20019;-51
2022/04/01 06:17:45;;;;;;;4.88;2.40;;;2.20;99.90;;;;;;4970966;28;20019;-52
2022/04/01 06:20:15;;;;;;;3.25;2.58;;;2.30;99.90;;;;;;4970589;28;20053;-49
2022/04/01 06:22:51;;;;;;;3.55;2.22;;;2.30;99.90;;;;;;4969844;28;20030;-51
2022/04/01 06:25:20;;;;;;;4.65;2.30;;;2.30;99.90;;;;;;4970576;28;20026;-47
2022/04/01 06:27:53;;;;;;;2.72;2.03;;;2.30;99.90;;;;;;4970773;28;20030;-52
2022/04/01 06:30:21;;;;;;;6.72;2.25;;;2.30;99.90;;;;;;4952277;28;20034;-53
2022/04/01 06:32:46;;;;;;;3.90;2.20;;;2.40;99.90;;;;;;4950936;28;20343;-54
2022/04/01 06:35:18;;;;;;;4.47;3.20;;;2.40;99.90;;;;;;4950824;28;20099;-50
2022/04/01 06:38:01;;;;;;;3.90;2.63;;;2.40;99.90;;;;;;4951502;29;20023;-48
2022/04/01 06:40:47;;;;;;;6.90;2.60;;;2.40;99.90;;;;;;4951380;28;20030;-48
2022/04/01 06:43:13;;;;;;;3.05;2.30;;;2.40;99.90;;;;;;4950107;28;20106;-51
2022/04/01 06:45:42;;;;;;;5.95;3.05;;;2.50;99.90;;;;;;4951333;28;20107;-48
2022/04/01 06:48:08;;;;;;;6.30;3.20;;;2.50;99.90;;;;;;4951397;29;20027;-50
2022/04/01 06:50:34;;;;;;;8.93;2.80;;;2.50;99.90;;;;;;4951590;28;20828;-53
2022/04/01 06:53:00;;;;;;;5.03;2.50;;;2.50;99.90;;;;;;4951367;28;20533;-51
2022/04/01 06:55:26;;;;;;;5.00;2.95;;;2.60;99.90;;;;;;4951357;28;20023;-51
2022/04/01 06:57:52;;;;;;;4.13;2.80;;;2.60;99.90;;;;;;4951225;28;20023;-52
2022/04/01 07:00:18;;;;;;;4.65;2.78;;;2.60;99.90;;;;;;4952833;28;20173;-50
2022/04/01 07:02:45;;;;;;;4.97;3.25;;;2.70;99.90;;;;;;4970062;28;20038;-50
2022/04/01 07:05:12;;;;;;;4.65;2.88;;;2.70;99.90;;;;;;4970184;28;20490;-49
2022/04/01 07:07:41;;;;;;;2.47;2.22;;;2.70;99.90;;;;;;4970531;28;20030;-50
2022/04/01 07:10:10;;;;;;;6.53;3.25;;;2.80;99.90;;;;;;4969797;28;20097;-52
2022/04/01 07:12:36;;;;;;;4.95;2.42;;;2.80;99.90;;;;;;4969724;28;20018;-50
2022/04/01 07:15:02;;;;;;;5.38;2.85;;;2.80;99.90;;;;;;4969886;28;20031;-49
2022/04/01 07:17:28;;;;;;;4.57;3.28;;;2.80;99.90;;;;;;4970373;28;20062;-49
2022/04/01 07:19:54;;;;;;;6.90;2.90;;;2.80;99.90;;;;;;4970411;28;20109;-50
2022/04/01 07:22:19;;;;;;;5.57;3.38;;;2.90;99.90;;;;;;4973780;28;20042;-50
2022/04/01 07:24:45;;;;;;;5.75;2.75;;;2.90;99.90;;;;;;4972657;28;20034;-50
2022/04/01 07:27:11;;;;;;;7.90;3.38;;;2.90;99.90;;;;;;4973888;28;20030;-51
2022/04/01 07:29:37;;;;;;;5.78;3.38;;;3.00;99.90;;;;;;4973311;28;20137;-53
2022/04/01 07:34:48;;;;;;;3.28;2.50;;;3.00;99.90;;;;;;4973130;28;20489;-52
2022/04/01 07:37:14;;;;;;;6.68;3.25;;;3.00;99.90;;;;;;4973644;28;20251;-50
2022/04/01 07:39:39;;;;;;;7.05;3.55;;;3.00;99.90;;;;;;4973164;28;20101;-55
2022/04/01 07:42:05;;;;;;;6.55;3.25;;;3.10;99.90;;;;;;4973278;28;20380;-53
2022/04/01 07:44:31;;;;;;;8.23;3.72;;;3.10;99.90;;;;;;4973269;28;20035;-52
2022/04/01 07:46:57;;;;;;;4.95;3.00;;;3.10;99.90;;;;;;4973393;28;20401;-54
2022/04/01 07:49:22;;;;;;;8.32;3.28;;;3.10;99.90;;;;;;4972482;28;20023;-54
2022/04/01 07:51:48;;;;;;;3.92;3.03;;;3.10;99.90;;;;;;4972836;28;20035;-52
2022/04/01 07:54:15;;;;;;;3.60;2.97;;;3.10;99.90;;;;;;4972806;28;20027;-49
2022/04/01 07:56:41;;;;;;;4.15;2.85;;;3.20;99.90;;;;;;4972615;28;20030;-49
2022/04/01 07:59:14;;;;;;;4.22;3.10;;;3.20;99.90;;;;;;4973019;28;20575;-52
2022/04/01 08:01:39;;;;;;;6.63;3.03;;;3.20;99.90;;;;;;4972845;28;20041;-52
2022/04/01 08:04:05;;;;;;;7.15;3.28;;;3.20;99.90;;;;;;4972834;28;20030;-55
2022/04/01 08:06:31;;;;;;;3.58;2.42;;;3.20;99.90;;;;;;4972776;28;20034;-55
2022/04/01 08:08:58;;;;;;;4.68;2.60;;;3.20;99.90;;;;;;4971916;28;20093;-52
2022/04/01 08:11:25;;;;;;;3.30;2.50;;;3.20;99.90;;;;;;4972729;28;20023;-54
2022/04/01 08:13:50;;;;;;;3.88;2.80;;;3.20;99.90;;;;;;4972596;28;20561;-55
2022/04/01 08:16:16;;;;;;;3.00;2.65;;;3.30;99.90;;;;;;4972809;28;20099;-55
2022/04/01 08:18:41;;;;;;;7.55;3.00;;;3.40;99.90;;;;;;4972262;28;20031;-54
2022/04/01 08:21:07;;;;;;;3.92;2.70;;;3.50;99.90;;;;;;4972095;28;20027;-55
2022/04/01 08:23:35;;;;;;;3.72;2.88;;;3.50;99.90;;;;;;4972090;28;20065;-54
2022/04/01 08:26:04;;;;;;;4.15;2.97;;;3.50;99.90;;;;;;4970914;28;20027;-52
2022/04/01 08:28:30;;;;;;;4.22;2.97;;;3.60;99.90;;;;;;4972555;28;20049;-50
2022/04/01 08:30:56;;;;;;;5.55;3.28;;;3.60;98.90;;;;;;4971833;28;20073;-55
2022/04/01 08:33:22;;;;;;;3.75;3.00;;;3.60;99.30;;;;;;4971864;28;20046;-54
2022/04/01 08:35:48;;;;;;;4.65;3.10;;;3.70;98.50;;;;;;4971275;28;20022;-55
2022/04/01 08:38:14;;;;;;;4.22;3.55;;;3.70;98.40;;;;;;4972532;28;20023;-51
2022/04/01 08:40:40;;;;;;;3.40;2.92;;;3.70;97.90;;;;;;4970698;28;20023;-55
2022/04/01 08:43:06;;;;;;;5.60;3.70;;;3.60;97.90;;;;;;4971696;28;20085;-54
2022/04/01 08:45:33;;;;;;;7.57;4.18;;;3.70;96.40;;;;;;4972486;28;20027;-55
2022/04/01 08:47:59;;;;;;;5.82;3.33;;;3.70;96.50;;;;;;4971918;28;20026;-56
2022/04/01 08:50:25;;;;;;;5.28;3.30;;;3.80;97.00;;;;;;4972233;28;20027;-56
2022/04/01 08:52:50;;;;;;;5.78;3.60;;;3.90;97.80;;;;;;4971566;28;20050;-55
2022/04/01 08:55:16;;;;;;;3.35;2.65;;;3.90;99.20;;;;;;4972225;28;20501;-57
2022/04/01 08:57:43;;;;;;;3.83;2.75;;;4.00;99.70;;;;;;4971123;28;20049;-55
2022/04/01 09:00:11;;;;;;;5.53;3.20;;;3.90;96.30;;;;;;4971397;28;20464;-55
2022/04/01 09:02:37;;;;;;;3.10;2.70;;;4.00;96.20;;;;;;4970517;28;20490;-53
2022/04/01 09:05:04;;;;;;;7.05;2.88;;;4.00;96.00;;;;;;4970717;28;20039;-53
2022/04/01 09:07:30;;;;;;;7.60;3.33;;;4.00;97.50;;;;;;4971021;28;20031;-57
2022/04/01 09:10:07;;;;;;;4.60;2.95;;;4.10;96.00;;;;;;4971131;28;20374;-57
2022/04/01 09:12:34;;;;;;;4.13;2.67;;;4.10;96.40;;;;;;4970623;28;20121;-56
2022/04/01 09:15:00;;;;;;;4.88;2.15;;;4.20;98.50;;;;;;4971090;28;20042;-56
2022/04/01 09:17:43;;;;;;;3.08;2.22;;;4.20;97.60;;;;;;4971228;28;20025;-57
2022/04/01 09:20:10;;;;;;;3.40;1.98;;;4.10;98.30;;;;;;4968531;28;20501;-56
2022/04/01 09:22:37;;;;;;;2.97;2.17;;;4.10;99.10;;;;;;4969194;28;20105;-55
2022/04/01 09:25:05;;;;;;;4.88;2.90;;;4.00;99.00;;;;;;4970591;28;20022;-55
2022/04/01 09:27:46;;;;;;;3.95;2.67;;;4.00;98.50;;;;;;4968549;28;20085;-57
2022/04/01 09:30:27;;;;;;;8.68;2.28;;;4.10;99.30;;;;;;4968759;28;20497;-57
2022/04/01 09:32:58;;;;;;;3.42;2.20;;;4.10;99.30;;;;;;4967814;28;20031;-55
2022/04/01 09:35:26;;;;;;;4.82;2.22;;;4.10;98.70;;;;;;4969729;28;20090;-57
2022/04/01 09:37:54;;;;;;;2.97;1.73;;;4.10;99.70;;;;;;4970602;28;20019;-54
2022/04/01 09:40:22;;;;;;;5.78;2.78;;;4.10;98.20;;;;;;4970746;28;20030;-54
2022/04/01 09:42:50;;;;;;;3.88;2.03;;;4.00;98.30;;;;;;4968212;28;20026;-54
2022/04/01 09:45:22;;;;;;;3.55;1.98;;;4.00;99.80;;;;;;4970390;28;20029;-56
2022/04/01 09:48:03;;;;;;;6.43;2.30;;;4.00;99.20;;;;;;4970448;28;20077;-56
2022/04/01 09:50:32;;;;;;;5.20;2.15;;;4.00;98.80;;;;;;4970070;28;20023;-51
2022/04/01 09:53:10;;;;;;;3.22;1.85;;;4.10;99.20;;;;;;4969976;28;20030;-55
2022/04/01 09:55:40;;;;;;;4.78;2.22;;;4.10;98.80;;;;;;4970274;28;20597;-52
2022/04/01 09:58:08;;;;;;;3.95;2.28;;;4.10;99.20;;;;;;4967851;28;20033;-55
2022/04/01 10:00:36;;;;;;;2.35;1.70;;;4.10;98.70;;;;;;4970428;28;20049;-56
2022/04/01 10:03:03;;;;;;;3.95;1.52;;;4.10;98.80;;;;;;4970117;28;20031;-53
2022/04/01 10:05:29;;;;;;;3.20;2.00;;;4.20;97.30;;;;;;4970112;28;20489;-53
2022/04/01 10:07:57;;;;;;;2.83;2.00;;;4.20;96.80;;;;;;4970427;28;20089;-58
2022/04/01 10:10:25;;;;;;;4.80;2.00;;;4.10;97.70;;;;;;4970155;28;20031;-53
2022/04/01 10:12:52;;;;;;;3.05;1.73;;;4.10;98.20;;;;;;4970113;28;20023;-54
2022/04/01 10:15:18;;;;;;;3.75;2.28;;;4.10;99.10;;;;;;4969991;28;20061;-55
2022/04/01 10:17:45;;;;;;;3.47;1.90;;;4.20;99.20;;;;;;4970617;28;20118;-54
2022/04/01 10:20:13;;;;;;;3.17;1.80;;;4.20;98.90;;;;;;4969598;28;20026;-52
2022/04/01 10:22:41;;;;;;;3.30;1.67;;;4.20;97.90;;;;;;4968421;28;20082;-50
2022/04/01 10:25:30;;;;;;;3.55;1.70;;;4.10;98.40;;;;;;4966850;28;20033;-53
2022/04/01 10:27:58;;;;;;;2.20;1.58;;;4.00;99.40;;;;;;4968769;28;20448;-57
2022/04/01 10:30:25;;;;;;;4.60;1.90;;;4.00;99.50;;;;;;4964622;28;20023;-53
2022/04/01 10:32:51;;;;;;;3.13;1.95;;;4.10;99.90;;;;;;4967076;28;20066;-55
2022/04/01 10:35:22;;;;;;;2.08;1.50;;;4.10;99.90;;;;;;4968527;28;20041;-55
2022/04/01 10:37:54;;;;;;;2.70;1.48;;;4.20;98.80;;;;;;4966978;28;20033;-55
2022/04/01 10:40:19;;;;;;;3.65;1.70;;;4.20;99.20;;;;;;4970938;28;20030;-54
2022/04/01 10:42:48;;;;;;;3.10;1.63;;;4.30;99.90;;;;;;4957992;28;20027;-55
2022/04/01 10:45:16;;;;;;;3.53;1.70;;;4.30;99.00;;;;;;4969233;28;20046;-56
2022/04/01 10:51:36;;;;;;;6.10;2.17;;;4.30;99.90;;;;;;4959264;28;20086;-57
2022/04/01 10:53:35;;;;;;;2.28;1.17;;;4.50;99.90;;;;;;4969845;28;20038;-53
2022/04/01 10:56:23;;;;;;;3.15;2.03;;;4.40;99.50;;;;;;4954999;29;20019;-55
2022/04/01 10:59:04;;;;;;;2.72;1.30;;;4.50;98.90;;;;;;4960398;28;20106;-57
2022/04/01 11:01:31;;;;;;;4.32;1.70;;;4.50;99.80;;;;;;4974217;28;20296;-53
2022/04/01 11:04:01;;;;;;;2.25;1.77;;;4.60;98.80;;;;;;4973608;28;20029;-52
2022/04/01 11:06:27;;;;;;;3.22;1.70;;;4.60;98.80;;;;;;4974148;28;20100;-54
2022/04/01 11:08:55;;;;;;;3.45;1.48;;;4.60;97.50;;;;;;4972870;28;20469;-53
2022/04/01 11:11:21;;;;;;;3.58;1.42;;;4.70;97.30;;;;;;4972658;28;20389;-52
2022/04/01 11:14:06;;;;;;;1.55;1.17;;;4.70;96.60;;;;;;4973045;28;20023;-55
2022/04/01 11:16:50;;;;;;;4.75;1.38;;;4.80;97.80;;;;;;4973675;28;20029;-52
2022/04/01 11:19:25;;;;;;;2.25;1.10;;;4.90;97.50;;;;;;4971753;28;20051;-57
2022/04/01 11:21:51;;;;;;;4.38;1.42;;;4.80;95.60;;;;;;4973389;28;20026;-54
2022/04/01 11:24:33;;;;;;;2.53;1.52;;;4.80;96.80;;;;;;4973579;28;20029;-57
2022/04/01 11:27:23;;;;;;;2.58;1.75;;;4.90;97.60;;;;;;4972998;28;20521;-53
2022/04/01 11:30:07;;;;;;;3.58;1.67;;;5.00;97.60;;;;;;4973546;28;20023;-58
2022/04/01 11:32:37;;;;;;;7.40;1.85;;;5.00;95.80;;;;;;4971383;28;20039;-53
2022/04/01 11:35:05;;;;;;;3.45;1.40;;;5.00;95.40;;;;;;4971536;28;20109;-53
2022/04/01 11:37:40;;;;;;;2.03;1.63;;;4.90;95.50;;;;;;4973586;28;20114;-52
2022/04/01 11:40:11;;;;;;;2.47;1.27;;;4.80;95.40;;;;;;4973355;28;20118;-53
2022/04/01 11:42:52;;;;;;;2.55;1.70;;;4.60;95.90;;;;;;4973062;28;20159;-56
2022/04/01 11:45:19;;;;;;;4.38;1.55;;;4.60;96.80;;;;;;4973860;28;20110;-52
2022/04/01 11:47:44;;;;;;;3.53;1.73;;;4.60;97.50;;;;;;4973342;28;20031;-51
2022/04/01 11:50:13;;;;;;;1.70;1.50;;;4.70;96.50;;;;;;4973178;28;20034;-52
2022/04/01 11:52:44;;;;;;;3.17;1.30;;;4.70;97.30;;;;;;4972539;28;20081;-54
2022/04/01 11:55:14;;;;;;;2.92;1.67;;;4.70;97.30;;;;;;4973532;28;20639;-56
2022/04/01 11:57:40;;;;;;;4.03;1.80;;;4.70;96.20;;;;;;4973329;28;20433;-56
2022/04/01 12:00:16;;;;;;;1.40;1.30;;;4.80;96.60;;;;;;4973357;28;20027;-56
2022/04/01 12:02:43;;;;;;;3.75;1.70;;;4.90;95.50;;;;;;4972874;28;20517;-51
2022/04/01 12:05:10;;;;;;;3.53;1.98;;;4.90;95.00;;;;;;4973098;28;20516;-56
2022/04/01 12:10:26;;;;;;;4.38;1.52;;;4.80;95.20;;;;;;4972715;28;20628;-53
2022/04/01 12:12:59;;;;;;;1.10;0.90;;;4.80;96.20;;;;;;4972302;28;20069;-53
2022/04/01 12:15:36;;;;;;;2.08;1.30;;;4.90;95.30;;;;;;4972871;28;20103;-52
2022/04/01 12:18:05;;;;;;;4.22;1.98;;;4.90;95.10;;;;;;4972270;28;20696;-52
2022/04/01 12:20:31;;;;;;;1.58;1.45;;;4.80;95.70;;;;;;4972709;28;20065;-53
2022/04/01 12:23:00;;;;;;;3.72;1.70;;;4.70;95.40;;;;;;4972284;28;20019;-56
2022/04/01 12:25:28;;;;;;;4.07;1.85;;;4.70;96.30;;;;;;4972562;28;20039;-51
2022/04/01 12:28:01;;;;;;;1.92;1.60;;;4.80;96.70;;;;;;4971692;28;20024;-55
2022/04/01 12:30:45;;;;;;;2.83;1.50;;;4.90;95.90;;;;;;4959080;28;20077;-52
2022/04/01 12:33:19;;;;;;;2.88;1.48;;;5.00;96.40;;;;;;4970655;28;20191;-52
2022/04/01 12:36:01;;;;;;;1.83;1.52;;;5.10;95.90;;;;;;4972157;28;20073;-50
2022/04/01 12:38:30;;;;;;;4.70;1.45;;;5.10;94.90;;;;;;4972309;28;20023;-50
2022/04/01 12:40:58;;;;;;;3.53;1.58;;;5.00;94.30;;;;;;4971202;28;20085;-54
2022/04/01 12:43:36;;;;;;;2.55;1.65;;;4.90;94.00;;;;;;4971825;28;20034;-53
2022/04/01 12:46:09;;;;;;;1.92;1.58;;;4.90;93.50;;;;;;4972186;28;20027;-53
2022/04/01 12:48:48;;;;;;;2.92;1.50;;;4.90;93.00;;;;;;4972004;28;20495;-52
2022/04/01 12:51:28;;;;;;;3.30;1.25;;;4.90;93.60;;;;;;4972172;28;20658;-53
2022/04/01 12:54:08;;;;;;;2.72;1.90;;;4.90;92.70;;;;;;4952389;28;20114;-55
2022/04/01 12:56:41;;;;;;;2.22;1.50;;;4.90;93.20;;;;;;4959049;28;20034;-51
2022/04/01 12:59:09;;;;;;;4.53;1.83;;;4.90;92.30;;;;;;4972607;28;20081;-50
2022/04/01 13:01:37;;;;;;;5.22;2.35;;;5.00;93.60;;;;;;4970738;28;20123;-54
2022/04/01 13:04:05;;;;;;;1.65;1.50;;;5.00;94.50;;;;;;4971481;28;20030;-54
2022/04/01 13:06:30;;;;;;;3.38;1.60;;;5.10;94.30;;;;;;4971832;28;20035;-52
2022/04/01 13:09:08;;;;;;;4.18;1.48;;;5.20;94.20;;;;;;4971990;28;20083;-51
2022/04/01 13:11:38;;;;;;;2.28;1.40;;;5.30;95.00;;;;;;4971982;28;20031;-53
2022/04/01 13:14:20;;;;;;;3.22;2.20;;;5.20;93.70;;;;;;4971839;28;20022;-54
2022/04/01 13:16:46;;;;;;;2.60;1.90;;;5.10;94.10;;;;;;4971703;28;20027;-49
2022/04/01 13:19:19;;;;;;;1.90;1.60;;;4.90;94.00;;;;;;4970712;28;20038;-53
2022/04/01 13:21:44;;;;;;;4.13;1.90;;;5.00;95.00;;;;;;4971577;28;20026;-54
2022/04/01 13:24:10;;;;;;;2.00;1.40;;;4.90;94.40;;;;;;4970901;28;20492;-54